createdAt,value
2024-03-24T00:00:43.735Z,100.00
2024-03-24T00:03:31.561Z,100.00
2024-03-24T00:05:59.433Z,100.00
2024-03-24T00:08:27.231Z,100.00
2024-03-24T00:10:56.834Z,100.00
2024-03-24T00:13:25.375Z,100.00
2024-03-24T00:15:55.671Z,100.00
2024-03-24T00:18:23.404Z,100.00
2024-03-24T00:20:51.931Z,100.00
2024-03-24T00:23:20.746Z,100.00
2024-03-24T00:25:48.488Z,100.00
2024-03-24T00:28:16.289Z,100.00
2024-03-24T00:30:44.075Z,100.00
2024-03-24T00:33:12.091Z,100.00
2024-03-24T00:35:40.026Z,100.00
2024-03-24T00:38:07.810Z,100.00
2024-03-24T00:40:35.798Z,100.00
2024-03-24T00:43:03.710Z,100.00
2024-03-24T00:45:31.511Z,100.00
2024-03-24T00:48:00.051Z,100.00
2024-03-24T00:50:28.054Z,100.00
2024-03-24T00:52:55.925Z,100.00
2024-03-24T00:55:23.850Z,100.00
2024-03-24T00:57:52.491Z,100.00
2024-03-24T01:00:20.586Z,100.00
2024-03-24T01:02:52.201Z,100.00
2024-03-24T01:05:20.127Z,100.00
2024-03-24T01:07:51.664Z,100.00
2024-03-24T01:10:19.595Z,100.00
2024-03-24T01:12:50.782Z,100.00
2024-03-24T01:15:18.864Z,100.00
2024-03-24T01:17:47.692Z,100.00
2024-03-24T01:20:15.847Z,100.00
2024-03-24T01:22:47.062Z,100.00
2024-03-24T01:25:14.936Z,100.00
2024-03-24T01:27:42.840Z,100.00
2024-03-24T01:30:11.704Z,100.00
2024-03-24T01:32:39.711Z,100.00
2024-03-24T01:35:07.897Z,100.00
2024-03-24T01:37:37.512Z,100.00
2024-03-24T01:40:05.834Z,100.00
2024-03-24T01:42:33.692Z,100.00
2024-03-24T01:45:01.473Z,100.00
2024-03-24T01:47:29.776Z,100.00
2024-03-24T01:49:57.749Z,100.00
2024-03-24T01:52:25.734Z,100.00
2024-03-24T01:54:53.751Z,100.00
2024-03-24T01:57:21.513Z,100.00
2024-03-24T01:59:51.457Z,100.00
2024-03-24T02:02:19.446Z,100.00
2024-03-24T02:04:50.959Z,100.00
2024-03-24T02:07:19.348Z,100.00
2024-03-24T02:09:47.176Z,100.00
2024-03-24T02:12:14.975Z,100.00
2024-03-24T02:14:43.679Z,100.00
2024-03-24T02:17:11.475Z,100.00
2024-03-24T02:19:39.388Z,100.00
2024-03-24T02:22:07.366Z,100.00
2024-03-24T02:24:35.178Z,100.00
2024-03-24T02:27:03.117Z,100.00
2024-03-24T02:29:31.078Z,100.00
2024-03-24T02:31:58.932Z,100.00
2024-03-24T02:34:26.738Z,100.00
2024-03-24T02:36:54.451Z,100.00
2024-03-24T02:39:22.217Z,100.00
2024-03-24T02:41:50.361Z,100.00
2024-03-24T02:44:18.337Z,100.00
2024-03-24T02:46:46.106Z,100.00
2024-03-24T02:49:14.029Z,100.00
2024-03-24T02:51:41.901Z,100.00
2024-03-24T02:54:09.698Z,100.00
2024-03-24T02:56:37.461Z,100.00
2024-03-24T02:59:05.306Z,100.00
2024-03-24T03:01:33.401Z,100.00
2024-03-24T03:04:01.807Z,100.00
2024-03-24T03:06:29.639Z,100.00
2024-03-24T03:08:57.412Z,100.00
2024-03-24T03:11:25.173Z,100.00
2024-03-24T03:13:52.892Z,100.00
2024-03-24T03:16:21.844Z,100.00
2024-03-24T03:18:49.783Z,100.00
2024-03-24T03:21:17.709Z,100.00
2024-03-24T03:23:45.851Z,100.00
2024-03-24T03:26:13.663Z,100.00
2024-03-24T03:28:41.444Z,100.00
2024-03-24T03:31:09.166Z,100.00
2024-03-24T03:33:36.889Z,100.00
2024-03-24T03:36:05.027Z,100.00
2024-03-24T03:38:32.883Z,100.00
2024-03-24T03:41:02.216Z,100.00
2024-03-24T03:43:30.037Z,100.00
2024-03-24T03:45:57.806Z,100.00
2024-03-24T03:48:25.716Z,100.00
2024-03-24T03:50:53.522Z,100.00
2024-03-24T03:53:26.167Z,100.00
2024-03-24T03:55:54.064Z,100.00
2024-03-24T03:58:22.190Z,100.00
2024-03-24T04:00:50.217Z,100.00
2024-03-24T04:03:18.034Z,100.00
2024-03-24T04:05:45.841Z,100.00
2024-03-24T04:08:13.547Z,100.00
2024-03-24T04:10:41.314Z,100.00
2024-03-24T04:13:09.169Z,100.00
2024-03-24T04:15:41.171Z,100.00
2024-03-24T04:18:08.908Z,100.00
2024-03-24T04:20:38.012Z,100.00
2024-03-24T04:23:05.932Z,100.00
2024-03-24T04:25:33.768Z,100.00
2024-03-24T04:28:01.538Z,100.00
2024-03-24T04:30:33.761Z,100.00
2024-03-24T04:33:01.521Z,100.00
2024-03-24T04:35:29.537Z,100.00
2024-03-24T04:37:57.615Z,100.00
2024-03-24T04:40:25.386Z,100.00
2024-03-24T04:42:53.503Z,100.00
2024-03-24T04:45:22.114Z,100.00
2024-03-24T04:47:49.915Z,100.00
2024-03-24T04:50:17.834Z,100.00
2024-03-24T04:52:47.879Z,100.00
2024-03-24T04:55:15.864Z,100.00
2024-03-24T04:57:43.819Z,100.00
2024-03-24T05:00:12.152Z,100.00
2024-03-24T05:02:40.717Z,100.00
2024-03-24T05:05:09.173Z,100.00
2024-03-24T05:07:37.323Z,100.00
2024-03-24T05:10:05.499Z,100.00
2024-03-24T05:12:33.360Z,100.00
2024-03-24T05:15:01.288Z,100.00
2024-03-24T05:17:29.116Z,100.00
2024-03-24T05:19:56.897Z,100.00
2024-03-24T05:22:24.671Z,100.00
2024-03-24T05:24:53.250Z,100.00
2024-03-24T05:27:21.079Z,100.00
2024-03-24T05:29:48.975Z,100.00
2024-03-24T05:32:16.799Z,100.00
2024-03-24T05:34:45.035Z,100.00
2024-03-24T05:37:12.954Z,100.00
2024-03-24T05:39:42.108Z,100.00
2024-03-24T05:42:11.078Z,100.00
2024-03-24T05:44:39.396Z,100.00
2024-03-24T05:47:07.179Z,100.00
2024-03-24T05:49:34.946Z,100.00
2024-03-24T05:52:02.740Z,100.00
2024-03-24T05:54:30.507Z,100.00
2024-03-24T05:57:00.501Z,100.00
2024-03-24T05:59:28.261Z,100.00
2024-03-24T06:01:56.256Z,100.00
2024-03-24T06:04:24.175Z,100.00
2024-03-24T06:06:52.467Z,100.00
2024-03-24T06:09:20.650Z,100.00
2024-03-24T06:11:48.558Z,100.00
2024-03-24T06:14:16.354Z,100.00
2024-03-24T06:16:44.237Z,100.00
2024-03-24T06:19:14.331Z,100.00
2024-03-24T06:21:42.704Z,100.00
2024-03-24T06:24:10.691Z,100.00
2024-03-24T06:26:38.729Z,100.00
2024-03-24T06:29:06.734Z,100.00
2024-03-24T06:31:34.797Z,100.00
2024-03-24T06:34:07.735Z,100.00
2024-03-24T06:36:35.785Z,100.00
2024-03-24T06:39:04.845Z,100.00
2024-03-24T06:41:32.726Z,100.00
2024-03-24T06:44:00.590Z,100.00
2024-03-24T06:46:28.907Z,100.00
2024-03-24T06:49:00.774Z,100.00
2024-03-24T06:51:28.554Z,100.00
2024-03-24T06:53:56.311Z,100.00
2024-03-24T06:56:24.280Z,100.00
2024-03-24T06:58:52.502Z,100.00
2024-03-24T07:01:20.380Z,100.00
2024-03-24T07:03:48.135Z,100.00
2024-03-24T07:06:16.070Z,100.00
2024-03-24T07:08:43.993Z,100.00
2024-03-24T07:11:11.939Z,100.00
2024-03-24T07:13:39.712Z,100.00
2024-03-24T07:16:08.878Z,100.00
2024-03-24T07:18:36.777Z,100.00
2024-03-24T07:21:06.675Z,100.00
2024-03-24T07:23:35.158Z,100.00
2024-03-24T07:26:04.228Z,100.00
2024-03-24T07:28:32.061Z,100.00
2024-03-24T07:30:59.980Z,100.00
2024-03-24T07:33:29.362Z,100.00
2024-03-24T07:35:59.295Z,100.00
2024-03-24T07:39:18.826Z,100.00
2024-03-24T07:41:48.185Z,100.00
2024-03-24T07:44:16.629Z,100.00
2024-03-24T07:46:44.541Z,100.00
2024-03-24T07:49:12.906Z,100.00
2024-03-24T07:51:41.095Z,100.00
2024-03-24T07:54:09.458Z,100.00
2024-03-24T07:56:39.340Z,100.00
2024-03-24T07:59:07.426Z,100.00
2024-03-24T08:01:35.320Z,100.00
2024-03-24T08:04:03.380Z,100.00
2024-03-24T08:06:31.244Z,100.00
2024-03-24T08:08:58.994Z,100.00
2024-03-24T08:11:26.964Z,100.00
2024-03-24T08:13:54.889Z,100.00
2024-03-24T08:16:22.976Z,100.00
2024-03-24T08:18:50.856Z,100.00
2024-03-24T08:21:18.666Z,100.00
2024-03-24T08:23:46.874Z,100.00
2024-03-24T08:26:14.800Z,100.00
2024-03-24T08:28:43.046Z,100.00
2024-03-24T08:31:11.452Z,100.00
2024-03-24T08:33:39.281Z,100.00
2024-03-24T08:36:08.885Z,100.00
2024-03-24T08:38:36.868Z,100.00
2024-03-24T08:41:04.987Z,100.00
2024-03-24T08:43:33.973Z,100.00
2024-03-24T08:46:01.840Z,100.00
2024-03-24T08:48:38.115Z,100.00
2024-03-24T08:51:09.745Z,100.00
2024-03-24T08:53:37.612Z,100.00
2024-03-24T08:56:06.399Z,100.00
2024-03-24T08:58:34.277Z,100.00
2024-03-24T09:01:04.831Z,100.00
2024-03-24T09:03:34.315Z,100.00
2024-03-24T09:06:02.533Z,100.00
2024-03-24T09:08:32.152Z,100.00
2024-03-24T09:11:00.193Z,100.00
2024-03-24T09:13:28.585Z,100.00
2024-03-24T09:15:57.230Z,100.00
2024-03-24T09:18:25.092Z,100.00
2024-03-24T09:20:53.063Z,100.00
2024-03-24T09:23:21.897Z,100.00
2024-03-24T09:25:49.724Z,100.00
2024-03-24T09:28:17.617Z,100.00
2024-03-24T09:31:04.563Z,100.00
2024-03-24T09:33:32.320Z,100.00
2024-03-24T09:36:01.299Z,100.00
2024-03-24T09:38:32.510Z,100.00
2024-03-24T09:41:00.894Z,100.00
2024-03-24T09:43:28.713Z,99.91
2024-03-24T09:45:56.527Z,99.20
2024-03-24T09:48:26.128Z,97.71
2024-03-24T09:50:57.311Z,96.02
2024-03-24T09:53:25.095Z,95.92
2024-03-24T09:55:55.328Z,95.84
2024-03-24T09:58:24.942Z,95.77
2024-03-24T10:00:53.972Z,96.15
2024-03-24T10:03:21.831Z,97.00
2024-03-24T10:05:51.459Z,97.93
2024-03-24T10:08:19.230Z,96.98
2024-03-24T10:10:47.213Z,95.13
2024-03-24T10:13:15.136Z,95.28
2024-03-24T10:15:44.161Z,93.78
2024-03-24T10:18:13.102Z,96.32
2024-03-24T10:20:40.989Z,95.62
2024-03-24T10:23:09.304Z,94.34
2024-03-24T10:25:37.667Z,92.32
2024-03-24T10:28:05.744Z,92.09
2024-03-24T10:30:40.678Z,91.89
2024-03-24T10:33:08.556Z,90.83
2024-03-24T10:35:36.388Z,89.66
2024-03-24T10:38:05.254Z,89.45
2024-03-24T10:40:34.784Z,89.62
2024-03-24T10:43:05.701Z,91.03
2024-03-24T10:45:33.685Z,88.88
2024-03-24T10:48:05.128Z,88.15
2024-03-24T10:50:36.977Z,86.89
2024-03-24T10:53:11.645Z,88.32
2024-03-24T10:55:39.605Z,88.63
2024-03-24T10:58:07.921Z,87.33
2024-03-24T11:00:35.955Z,86.93
2024-03-24T11:03:06.017Z,86.38
2024-03-24T11:05:37.086Z,86.45
2024-03-24T11:08:07.827Z,88.09
2024-03-24T11:10:35.948Z,86.80
2024-03-24T11:13:06.480Z,87.76
2024-03-24T11:15:36.171Z,88.02
2024-03-24T11:18:05.186Z,87.11
2024-03-24T11:20:34.866Z,85.90
2024-03-24T11:23:03.107Z,84.78
2024-03-24T11:25:37.995Z,82.88
2024-03-24T11:28:06.310Z,79.88
2024-03-24T11:30:34.315Z,80.82
2024-03-24T11:33:02.828Z,79.94
2024-03-24T11:35:31.166Z,78.29
2024-03-24T11:38:00.091Z,79.87
2024-03-24T11:40:31.694Z,80.17
2024-03-24T11:42:59.816Z,78.87
2024-03-24T11:45:29.616Z,77.37
2024-03-24T11:48:20.955Z,78.19
2024-03-24T11:50:49.507Z,78.14
2024-03-24T11:53:19.956Z,77.62
2024-03-24T11:55:49.677Z,75.78
2024-03-24T11:58:19.771Z,75.25
2024-03-24T12:00:50.831Z,76.87
2024-03-24T12:03:18.739Z,78.04
2024-03-24T12:05:46.770Z,78.29
2024-03-24T12:08:14.807Z,74.70
2024-03-24T12:10:42.711Z,69.25
2024-03-24T12:13:10.517Z,69.99
2024-03-24T12:15:38.473Z,67.14
2024-03-24T12:18:11.241Z,70.52
2024-03-24T12:20:40.078Z,70.70
2024-03-24T12:23:08.769Z,69.91
2024-03-24T12:25:47.175Z,71.67
2024-03-24T12:28:18.745Z,71.33
2024-03-24T12:30:56.548Z,70.13
2024-03-24T12:33:26.425Z,70.02
2024-03-24T12:35:55.857Z,69.33
2024-03-24T12:38:25.008Z,70.48
2024-03-24T12:40:55.404Z,70.23
2024-03-24T12:43:27.201Z,70.56
2024-03-24T12:45:59.166Z,65.57
2024-03-24T12:48:30.622Z,63.85
2024-03-24T12:50:59.015Z,63.57
2024-03-24T12:53:51.276Z,63.63
2024-03-24T12:56:21.387Z,63.83
2024-03-24T12:58:49.621Z,64.93
2024-03-24T13:01:19.532Z,66.03
2024-03-24T13:03:47.737Z,66.45
2024-03-24T13:06:17.623Z,64.86
2024-03-24T13:08:48.524Z,65.25
2024-03-24T13:11:23.594Z,65.37
2024-03-24T13:13:51.644Z,66.87
2024-03-24T13:16:24.942Z,66.00
2024-03-24T13:19:05.056Z,68.20
2024-03-24T13:21:36.833Z,69.60
2024-03-24T13:24:08.483Z,71.64
2024-03-24T13:26:38.932Z,74.05
2024-03-24T13:29:07.192Z,75.27
2024-03-24T13:31:35.262Z,75.96
2024-03-24T13:34:03.137Z,76.71
2024-03-24T13:36:48.053Z,76.27
2024-03-24T13:39:40.898Z,77.32
2024-03-24T13:42:34.969Z,75.76
2024-03-24T13:45:03.092Z,76.90
2024-03-24T13:47:33.620Z,77.38
2024-03-24T13:50:02.493Z,77.59
2024-03-24T13:52:34.824Z,79.31
2024-03-24T13:55:10.251Z,79.37
2024-03-24T13:57:38.170Z,78.00
2024-03-24T14:00:10.548Z,77.60
2024-03-24T14:02:41.456Z,77.04
2024-03-24T14:05:09.405Z,75.08
2024-03-24T14:07:37.385Z,75.25
2024-03-24T14:10:06.361Z,75.38
2024-03-24T14:13:05.603Z,73.07
2024-03-24T14:15:57.083Z,73.25
2024-03-24T14:19:06.123Z,71.88
2024-03-24T14:21:45.163Z,71.11
2024-03-24T14:24:19.091Z,68.64
2024-03-24T14:26:47.829Z,68.79
2024-03-24T14:29:15.731Z,66.57
2024-03-24T14:31:43.632Z,66.34
2024-03-24T14:34:11.468Z,65.79
2024-03-24T14:36:56.005Z,66.25
2024-03-24T14:39:41.887Z,66.95
2024-03-24T14:42:30.145Z,67.30
2024-03-24T14:45:07.108Z,67.37
2024-03-24T14:47:46.462Z,66.62
2024-03-24T14:50:14.859Z,65.03
2024-03-24T14:52:42.747Z,62.84
2024-03-24T14:55:10.770Z,62.32
2024-03-24T14:57:38.608Z,62.26
2024-03-24T15:00:14.243Z,64.28
2024-03-24T15:02:42.490Z,64.89
2024-03-24T15:05:13.195Z,64.17
2024-03-24T15:07:40.950Z,64.31
2024-03-24T15:10:12.051Z,65.58
2024-03-24T15:12:39.968Z,65.72
2024-03-24T15:15:11.704Z,66.48
2024-03-24T15:17:39.731Z,67.21
2024-03-24T15:20:11.188Z,68.26
2024-03-24T15:22:40.307Z,69.42
2024-03-24T15:25:10.599Z,70.42
2024-03-24T15:27:38.783Z,71.53
2024-03-24T15:30:07.304Z,72.42
2024-03-24T15:32:35.127Z,73.00
2024-03-24T15:35:05.000Z,72.60
2024-03-24T15:37:33.291Z,73.14
2024-03-24T15:40:02.053Z,72.99
2024-03-24T15:42:31.315Z,73.41
2024-03-24T15:44:59.380Z,74.69
2024-03-24T15:47:27.216Z,75.73
2024-03-24T15:49:55.136Z,76.58
2024-03-24T15:52:23.346Z,77.15
2024-03-24T15:54:51.521Z,78.55
2024-03-24T15:57:28.534Z,78.04
2024-03-24T16:00:04.875Z,79.10
2024-03-24T16:02:33.053Z,79.60
2024-03-24T16:05:01.885Z,80.35
2024-03-24T16:07:35.802Z,81.42
2024-03-24T16:10:08.060Z,82.42
2024-03-24T16:13:01.201Z,84.34
2024-03-24T16:15:29.193Z,84.98
2024-03-24T16:17:58.673Z,86.62
2024-03-24T16:20:35.986Z,87.68
2024-03-24T16:23:04.789Z,88.22
2024-03-24T16:25:32.773Z,88.52
2024-03-24T16:28:00.633Z,89.78
2024-03-24T16:30:32.106Z,91.86
2024-03-24T16:33:00.957Z,92.47
2024-03-24T16:35:32.080Z,92.53
2024-03-24T16:38:00.431Z,93.63
2024-03-24T16:40:28.334Z,92.83
2024-03-24T16:42:56.322Z,93.91
2024-03-24T16:45:24.369Z,96.06
2024-03-24T16:47:52.770Z,96.60
2024-03-24T16:50:20.990Z,97.57
2024-03-24T16:52:49.567Z,99.89
2024-03-24T16:55:17.533Z,98.38
2024-03-24T16:57:47.059Z,99.14
2024-03-24T17:00:15.147Z,98.79
2024-03-24T17:02:42.983Z,99.29
2024-03-24T17:05:10.901Z,100.00
2024-03-24T17:07:38.694Z,100.00
2024-03-24T17:10:11.224Z,100.00
2024-03-24T17:12:39.635Z,100.00
2024-03-24T17:15:13.668Z,100.00
2024-03-24T17:17:41.632Z,100.00
2024-03-24T17:20:09.956Z,100.00
2024-03-24T17:22:37.964Z,99.99
2024-03-24T17:25:08.327Z,99.91
2024-03-24T17:27:36.212Z,99.90
2024-03-24T17:30:04.663Z,99.51
2024-03-24T17:32:32.963Z,99.59
2024-03-24T17:35:00.837Z,99.24
2024-03-24T17:37:28.805Z,99.05
2024-03-24T17:39:56.631Z,99.50
2024-03-24T17:42:24.407Z,99.50
2024-03-24T17:44:52.258Z,99.71
2024-03-24T17:47:22.820Z,99.77
2024-03-24T17:49:50.771Z,99.92
2024-03-24T17:52:19.584Z,100.00
2024-03-24T17:54:47.445Z,100.00
2024-03-24T17:57:15.264Z,100.00
2024-03-24T17:59:43.184Z,100.00
2024-03-24T18:02:13.195Z,100.00
2024-03-24T18:04:41.854Z,100.00
2024-03-24T18:07:28.506Z,100.00
2024-03-24T18:10:20.259Z,100.00
2024-03-24T18:12:50.382Z,100.00
2024-03-24T18:15:21.023Z,100.00
2024-03-24T18:17:49.015Z,100.00
2024-03-24T18:20:17.129Z,100.00
2024-03-24T18:22:48.309Z,100.00
2024-03-24T18:25:18.518Z,100.00
2024-03-24T18:27:46.493Z,100.00
2024-03-24T18:30:14.691Z,100.00
2024-03-24T18:32:43.113Z,100.00
2024-03-24T18:35:11.057Z,100.00
2024-03-24T18:37:48.758Z,100.00
2024-03-24T18:40:16.873Z,100.00
2024-03-24T18:42:44.930Z,100.00
2024-03-24T18:45:12.846Z,100.00
2024-03-24T18:47:40.924Z,100.00
2024-03-24T18:50:09.446Z,100.00
2024-03-24T18:52:38.324Z,100.00
2024-03-24T18:55:08.754Z,100.00
2024-03-24T18:57:37.729Z,100.00
2024-03-24T19:00:06.346Z,100.00
2024-03-24T19:02:34.406Z,100.00
2024-03-24T19:05:06.572Z,100.00
2024-03-24T19:07:34.820Z,100.00
2024-03-24T19:10:02.819Z,100.00
2024-03-24T19:12:30.800Z,100.00
2024-03-24T19:14:58.765Z,100.00
2024-03-24T19:17:26.622Z,100.00
2024-03-24T19:19:54.599Z,100.00
2024-03-24T19:22:23.428Z,100.00
2024-03-24T19:24:51.292Z,100.00
2024-03-24T19:27:19.111Z,100.00
2024-03-24T19:29:46.920Z,100.00
2024-03-24T19:32:14.794Z,100.00
2024-03-24T19:34:43.878Z,100.00
2024-03-24T19:37:11.791Z,100.00
2024-03-24T19:39:39.775Z,100.00
2024-03-24T19:42:07.753Z,100.00
2024-03-24T19:44:35.648Z,100.00
2024-03-24T19:47:03.879Z,100.00
2024-03-24T19:49:34.177Z,100.00
2024-03-24T19:52:02.481Z,100.00
2024-03-24T19:54:31.831Z,100.00
2024-03-24T19:56:59.947Z,100.00
2024-03-24T19:59:27.892Z,100.00
2024-03-24T20:01:55.872Z,100.00
2024-03-24T20:04:24.167Z,100.00
2024-03-24T20:06:52.080Z,100.00
2024-03-24T20:09:20.053Z,100.00
2024-03-24T20:11:48.013Z,100.00
2024-03-24T20:14:16.069Z,100.00
2024-03-24T20:16:44.199Z,100.00
2024-03-24T20:19:12.018Z,100.00
2024-03-24T20:21:39.974Z,100.00
2024-03-24T20:24:07.984Z,100.00
2024-03-24T20:26:35.893Z,100.00
2024-03-24T20:29:06.678Z,100.00
2024-03-24T20:31:34.693Z,100.00
2024-03-24T20:34:02.465Z,100.00
2024-03-24T20:36:30.400Z,100.00
2024-03-24T20:38:58.306Z,100.00
2024-03-24T20:41:28.162Z,100.00
2024-03-24T20:43:56.033Z,100.00
2024-03-24T20:46:23.850Z,100.00
2024-03-24T20:48:54.656Z,100.00
2024-03-24T20:51:23.621Z,100.00
2024-03-24T20:53:51.572Z,100.00
2024-03-24T20:56:20.303Z,100.00
2024-03-24T20:58:48.244Z,100.00
2024-03-24T21:01:16.340Z,100.00
2024-03-24T21:03:45.034Z,100.00
2024-03-24T21:06:12.998Z,100.00
2024-03-24T21:08:40.759Z,100.00
2024-03-24T21:11:09.350Z,100.00
2024-03-24T21:13:38.066Z,100.00
2024-03-24T21:16:06.411Z,100.00
2024-03-24T21:18:34.886Z,100.00
2024-03-24T21:21:03.086Z,100.00
2024-03-24T21:23:31.154Z,100.00
2024-03-24T21:25:59.030Z,100.00
2024-03-24T21:28:26.951Z,100.00
2024-03-24T21:30:54.941Z,100.00
2024-03-24T21:33:22.832Z,100.00
2024-03-24T21:35:50.835Z,100.00
2024-03-24T21:38:37.588Z,100.00
2024-03-24T21:41:24.639Z,100.00
2024-03-24T21:43:52.692Z,100.00
2024-03-24T21:46:20.560Z,100.00
2024-03-24T21:48:48.348Z,100.00
2024-03-24T21:51:16.364Z,100.00
2024-03-24T21:53:44.164Z,100.00
2024-03-24T21:56:12.024Z,100.00
2024-03-24T21:58:40.329Z,100.00
2024-03-24T22:01:09.480Z,100.00
2024-03-24T22:03:37.561Z,100.00
2024-03-24T22:06:06.502Z,100.00
2024-03-24T22:08:39.433Z,100.00
2024-03-24T22:11:07.667Z,100.00
2024-03-24T22:13:35.494Z,100.00
2024-03-24T22:16:03.964Z,100.00
2024-03-24T22:18:31.751Z,100.00
2024-03-24T22:20:59.600Z,100.00
2024-03-24T22:23:27.405Z,100.00
2024-03-24T22:25:55.262Z,100.00
2024-03-24T22:28:23.091Z,100.00
2024-03-24T22:30:51.125Z,100.00
2024-03-24T22:33:19.071Z,100.00
2024-03-24T22:35:46.876Z,100.00
2024-03-24T22:38:16.228Z,100.00
2024-03-24T22:40:45.362Z,100.00
2024-03-24T22:43:14.633Z,100.00
2024-03-24T22:45:43.079Z,100.00
2024-03-24T22:48:11.186Z,100.00
2024-03-24T22:50:39.868Z,100.00
2024-03-24T22:53:08.318Z,100.00
2024-03-24T22:55:36.448Z,100.00
2024-03-24T22:58:05.062Z,100.00
2024-03-24T23:00:34.522Z,100.00
2024-03-24T23:03:02.377Z,100.00
2024-03-24T23:05:30.500Z,100.00
2024-03-24T23:07:58.314Z,100.00
2024-03-24T23:10:26.128Z,100.00
2024-03-24T23:12:53.955Z,100.00
2024-03-24T23:15:22.032Z,100.00
2024-03-24T23:17:50.088Z,100.00
2024-03-24T23:20:17.890Z,100.00
2024-03-24T23:22:45.617Z,100.00
2024-03-24T23:25:13.504Z,100.00
2024-03-24T23:27:41.403Z,100.00
2024-03-24T23:30:10.010Z,100.00
2024-03-24T23:32:37.861Z,100.00
2024-03-24T23:35:09.969Z,100.00
2024-03-24T23:37:38.818Z,100.00
2024-03-24T23:40:07.447Z,100.00
2024-03-24T23:42:35.243Z,100.00
2024-03-24T23:45:03.122Z,100.00
2024-03-24T23:47:34.214Z,100.00
2024-03-24T23:50:02.929Z,100.00
2024-03-24T23:52:31.862Z,100.00
2024-03-24T23:54:59.721Z,100.00
2024-03-24T23:57:27.623Z,100.00
2024-03-24T23:59:55.558Z,100.00
